CG Margaret Norvell — NFPE — position and weather

sailwx.info

Track history (hours):
 
Tides and Currents Weather Stations Pressure Air Temp Water Temp Dewpoint Dewpoint Depression Visibility Wind Speed Wind Dir Waves Ship Positions

CG Margaret Norvell

Last reported at 2018-Apr-11 18:31 UTC. Time now 2018-Apr-23 21:24 UTC.
Position N 25°46' W 080°09'.
Warning: this ship's position is 12 days out of date.

Length 46 m; draft 3 m.

Type: Law enforcement. MMSI: 338926405.

Date/timePositionNaut miles runAvg speedWind from/ knotsBaromVisibWave heightAir tempDewpointWater temp
2018-Apr-11 18:31N 25°46' W 080°09'0 0.1
2018-Apr-11 18:28N 25°46' W 080°09'3 6.4
2018-Apr-11 18:00N 25°46' W 080°06'4 8.8
2018-Apr-11 17:30N 25°49' W 080°02'4 7.4
2018-Apr-11 17:00N 25°45' W 080°02'2 4.1
2018-Apr-11 16:30N 25°47' W 080°03'2 3.7
2018-Apr-11 16:00N 25°45' W 080°03'4 8.2
2018-Apr-11 15:31N 25°49' W 080°02'510.8
2018-Apr-11 15:00N 25°45' W 080°07'2 4.0
2018-Apr-11 14:28N 25°46' W 080°09'0 0.0
2018-Apr-11 13:52N 25°46' W 080°09'0 0.0
2018-Apr-11 13:28N 25°46' W 080°09'0 0.0
2018-Apr-11 12:55N 25°46' W 080°09'0 0.0
2018-Apr-11 12:28N 25°46' W 080°09'0 0.0
2018-Apr-11 11:55N 25°46' W 080°09'0 0.0
2018-Apr-11 11:25N 25°46' W 080°09'0 0.0
2018-Apr-11 10:58N 25°46' W 080°09'0 0.0
2018-Apr-09 12:28N 25°46' W 080°09'0 0.6
2018-Apr-09 12:00N 25°46' W 080°09'3 6.0
2018-Apr-09 11:30N 25°46' W 080°05'6 0.3
2018-Apr-08 14:04N 25°49' W 079°60'118.5
2018-Apr-08 14:01N 25°49' W 080°00'714.3
2018-Apr-08 13:30N 25°46' W 080°08'1 0.0
2018-Apr-06 13:30N 25°46' W 080°09'3 5.6
2018-Apr-06 13:01N 25°46' W 080°06'  
2018-Apr-02 12:27N 25°47' W 080°00'512.1
2018-Apr-02 12:00N 25°46' W 080°06'2 3.5
2018-Apr-02 11:19N 25°46' W 080°09'0 0.0
2018-Apr-02 10:49N 25°46' W 080°09'0 0.0
2018-Apr-02 10:16N 25°46' W 080°09'0 0.0
2018-Apr-02 09:58N 25°46' W 080°09'0 0.0
2018-Apr-02 09:19N 25°46' W 080°09'0 0.0
2018-Apr-02 08:49N 25°46' W 080°09'0 0.0
2018-Apr-02 08:29N 25°46' W 080°09'0 0.0
2018-Apr-02 07:59N 25°46' W 080°09'0 0.0
2018-Apr-02 07:29N 25°46' W 080°09'0 0.0
2018-Apr-02 06:59N 25°46' W 080°09'0 0.0
2018-Apr-02 06:28N 25°46' W 080°09'0 0.0
2018-Apr-02 05:58N 25°46' W 080°09'0 0.0
2018-Apr-02 05:28N 25°46' W 080°09'0 0.0
2018-Apr-02 04:58N 25°46' W 080°09'0 0.0
2018-Apr-02 04:28N 25°46' W 080°09'0 0.0
2018-Apr-02 03:50N 25°46' W 080°09'0 0.0
2018-Apr-02 03:28N 25°46' W 080°09'0 0.0
2018-Apr-02 02:58N 25°46' W 080°09'0 0.0
2018-Apr-02 02:28N 25°46' W 080°09'0 0.0
2018-Apr-02 01:58N 25°46' W 080°09'0 0.0
2018-Apr-02 01:19N 25°46' W 080°09'0 0.0
2018-Apr-02 00:53N 25°46' W 080°09'0 0.0
2018-Apr-02 00:23N 25°46' W 080°09'0 0.0
2018-Apr-01 23:53N 25°46' W 080°09'0 0.0
2018-Apr-01 23:19N 25°46' W 080°09'0 0.0
2018-Apr-01 22:53N 25°46' W 080°09'0 0.0
2018-Apr-01 22:23N 25°46' W 080°09'0 0.0
2018-Apr-01 21:52N 25°46' W 080°09'0 0.0
2018-Apr-01 21:28N 25°46' W 080°09'0 0.0
2018-Apr-01 20:52N 25°46' W 080°09'0 0.0
2018-Apr-01 20:22N 25°46' W 080°09'0 0.0
2018-Apr-01 19:44N 25°46' W 080°09'0 0.0
2018-Apr-01 19:22N 25°46' W 080°09'0 0.0
2018-Apr-01 18:52N 25°46' W 080°09'  
Track history (hours):
 
Tides and Currents Weather Stations Pressure Air Temp Water Temp Dewpoint Dewpoint Depression Visibility Wind Speed Wind Dir Waves Ship Positions

CG Margaret Norvell

Last reported at 2018-Apr-11 18:31 UTC. Time now 2018-Apr-23 21:24 UTC.
Position N 25°46' W 080°09'.
Warning: this ship's position is 12 days out of date.

Length 46 m; draft 3 m.

Type: Law enforcement. MMSI: 338926405.

Date/timePositionNaut miles runAvg speedWind from/ knotsBaromVisibWave heightAir tempDewpointWater temp
2018-Apr-11 18:31N 25°46' W 080°09'0 0.1
2018-Apr-11 18:28N 25°46' W 080°09'3 6.4
2018-Apr-11 18:00N 25°46' W 080°06'4 8.8
2018-Apr-11 17:30N 25°49' W 080°02'4 7.4
2018-Apr-11 17:00N 25°45' W 080°02'2 4.1
2018-Apr-11 16:30N 25°47' W 080°03'2 3.7
2018-Apr-11 16:00N 25°45' W 080°03'4 8.2
2018-Apr-11 15:31N 25°49' W 080°02'510.8
2018-Apr-11 15:00N 25°45' W 080°07'2 4.0
2018-Apr-11 14:28N 25°46' W 080°09'0 0.0
2018-Apr-11 13:52N 25°46' W 080°09'0 0.0
2018-Apr-11 13:28N 25°46' W 080°09'0 0.0
2018-Apr-11 12:55N 25°46' W 080°09'0 0.0
2018-Apr-11 12:28N 25°46' W 080°09'0 0.0
2018-Apr-11 11:55N 25°46' W 080°09'0 0.0
2018-Apr-11 11:25N 25°46' W 080°09'0 0.0
2018-Apr-11 10:58N 25°46' W 080°09'0 0.0
2018-Apr-09 12:28N 25°46' W 080°09'0 0.6
2018-Apr-09 12:00N 25°46' W 080°09'3 6.0
2018-Apr-09 11:30N 25°46' W 080°05'6 0.3
2018-Apr-08 14:04N 25°49' W 079°60'118.5
2018-Apr-08 14:01N 25°49' W 080°00'714.3
2018-Apr-08 13:30N 25°46' W 080°08'1 0.0
2018-Apr-06 13:30N 25°46' W 080°09'3 5.6
2018-Apr-06 13:01N 25°46' W 080°06'  
2018-Apr-02 12:27N 25°47' W 080°00'512.1
2018-Apr-02 12:00N 25°46' W 080°06'2 3.5
2018-Apr-02 11:19N 25°46' W 080°09'0 0.0
2018-Apr-02 10:49N 25°46' W 080°09'0 0.0
2018-Apr-02 10:16N 25°46' W 080°09'0 0.0
2018-Apr-02 09:58N 25°46' W 080°09'0 0.0
2018-Apr-02 09:19N 25°46' W 080°09'0 0.0
2018-Apr-02 08:49N 25°46' W 080°09'0 0.0
2018-Apr-02 08:29N 25°46' W 080°09'0 0.0
2018-Apr-02 07:59N 25°46' W 080°09'0 0.0
2018-Apr-02 07:29N 25°46' W 080°09'0 0.0
2018-Apr-02 06:59N 25°46' W 080°09'0 0.0
2018-Apr-02 06:28N 25°46' W 080°09'0 0.0
2018-Apr-02 05:58N 25°46' W 080°09'0 0.0
2018-Apr-02 05:28N 25°46' W 080°09'0 0.0
2018-Apr-02 04:58N 25°46' W 080°09'0 0.0
2018-Apr-02 04:28N 25°46' W 080°09'0 0.0
2018-Apr-02 03:50N 25°46' W 080°09'0 0.0
2018-Apr-02 03:28N 25°46' W 080°09'0 0.0
2018-Apr-02 02:58N 25°46' W 080°09'0 0.0
2018-Apr-02 02:28N 25°46' W 080°09'0 0.0
2018-Apr-02 01:58N 25°46' W 080°09'0 0.0
2018-Apr-02 01:19N 25°46' W 080°09'0 0.0
2018-Apr-02 00:53N 25°46' W 080°09'0 0.0
2018-Apr-02 00:23N 25°46' W 080°09'0 0.0
2018-Apr-01 23:53N 25°46' W 080°09'0 0.0
2018-Apr-01 23:19N 25°46' W 080°09'0 0.0
2018-Apr-01 22:53N 25°46' W 080°09'0 0.0
2018-Apr-01 22:23N 25°46' W 080°09'0 0.0
2018-Apr-01 21:52N 25°46' W 080°09'0 0.0
2018-Apr-01 21:28N 25°46' W 080°09'0 0.0
2018-Apr-01 20:52N 25°46' W 080°09'0 0.0
2018-Apr-01 20:22N 25°46' W 080°09'0 0.0
2018-Apr-01 19:44N 25°46' W 080°09'0 0.0
2018-Apr-01 19:22N 25°46' W 080°09'0 0.0
2018-Apr-01 18:52N 25°46' W 080°09'  

Dump ship's entire track history